sensor_id;sensor_type;location;lat;lon;timestamp;P1;durP1;ratioP1;P2;durP2;ratioP2
26951;SDS011;14507;52.418;13.398;2022-11-15T00:01:36;59.53;;;33.20;;
26951;SDS011;14507;52.418;13.398;2022-11-15T00:04:03;61.00;;;34.03;;
26951;SDS011;14507;52.418;13.398;2022-11-15T00:06:29;62.70;;;34.08;;
26951;SDS011;14507;52.418;13.398;2022-11-15T00:08:57;64.47;;;34.70;;
26951;SDS011;14507;52.418;13.398;2022-11-15T00:11:24;65.45;;;35.17;;
26951;SDS011;14507;52.418;13.398;2022-11-15T00:13:49;63.63;;;35.40;;
26951;SDS011;14507;52.418;13.398;2022-11-15T00:16:15;64.80;;;36.67;;
26951;SDS011;14507;52.418;13.398;2022-11-15T00:18:41;63.72;;;35.53;;
26951;SDS011;14507;52.418;13.398;2022-11-15T00:21:08;70.78;;;36.30;;
26951;SDS011;14507;52.418;13.398;2022-11-15T00:23:36;63.35;;;34.67;;
26951;SDS011;14507;52.418;13.398;2022-11-15T00:26:02;66.57;;;35.88;;
26951;SDS011;14507;52.418;13.398;2022-11-15T00:28:28;64.35;;;35.63;;
26951;SDS011;14507;52.418;13.398;2022-11-15T00:30:59;67.28;;;37.00;;
26951;SDS011;14507;52.418;13.398;2022-11-15T00:33:28;66.82;;;36.53;;
26951;SDS011;14507;52.418;13.398;2022-11-15T00:36:07;62.35;;;35.38;;
26951;SDS011;14507;52.418;13.398;2022-11-15T00:38:34;67.43;;;37.90;;
26951;SDS011;14507;52.418;13.398;2022-11-15T00:41:02;66.28;;;36.60;;
26951;SDS011;14507;52.418;13.398;2022-11-15T00:43:29;73.33;;;35.77;;
26951;SDS011;14507;52.418;13.398;2022-11-15T00:45:55;66.32;;;36.47;;
26951;SDS011;14507;52.418;13.398;2022-11-15T00:48:21;62.70;;;35.78;;
26951;SDS011;14507;52.418;13.398;2022-11-15T00:50:47;63.83;;;35.00;;
26951;SDS011;14507;52.418;13.398;2022-11-15T00:53:13;63.80;;;36.60;;
26951;SDS011;14507;52.418;13.398;2022-11-15T00:55:39;62.90;;;34.58;;
26951;SDS011;14507;52.418;13.398;2022-11-15T00:58:05;62.97;;;35.50;;
26951;SDS011;14507;52.418;13.398;2022-11-15T01:00:30;62.13;;;35.35;;
26951;SDS011;14507;52.418;13.398;2022-11-15T01:02:56;62.53;;;35.13;;
26951;SDS011;14507;52.418;13.398;2022-11-15T01:05:22;68.47;;;36.67;;
26951;SDS011;14507;52.418;13.398;2022-11-15T01:07:51;64.35;;;36.03;;
26951;SDS011;14507;52.418;13.398;2022-11-15T01:10:17;64.90;;;35.88;;
26951;SDS011;14507;52.418;13.398;2022-11-15T01:12:43;60.47;;;34.45;;
26951;SDS011;14507;52.418;13.398;2022-11-15T01:15:09;63.08;;;35.05;;
26951;SDS011;14507;52.418;13.398;2022-11-15T01:17:35;65.88;;;36.92;;
26951;SDS011;14507;52.418;13.398;2022-11-15T01:20:00;64.55;;;36.17;;
26951;SDS011;14507;52.418;13.398;2022-11-15T01:22:26;64.78;;;36.08;;
26951;SDS011;14507;52.418;13.398;2022-11-15T01:24:52;61.45;;;35.08;;
26951;SDS011;14507;52.418;13.398;2022-11-15T01:27:17;63.60;;;35.75;;
26951;SDS011;14507;52.418;13.398;2022-11-15T01:29:43;62.33;;;34.63;;
26951;SDS011;14507;52.418;13.398;2022-11-15T01:32:09;66.30;;;36.22;;
26951;SDS011;14507;52.418;13.398;2022-11-15T01:34:34;64.47;;;35.92;;
26951;SDS011;14507;52.418;13.398;2022-11-15T01:37:00;66.25;;;35.97;;
26951;SDS011;14507;52.418;13.398;2022-11-15T01:39:26;72.43;;;38.67;;
26951;SDS011;14507;52.418;13.398;2022-11-15T01:41:52;62.55;;;34.08;;
26951;SDS011;14507;52.418;13.398;2022-11-15T01:46:56;70.90;;;37.90;;
26951;SDS011;14507;52.418;13.398;2022-11-15T01:49:24;67.35;;;37.60;;
26951;SDS011;14507;52.418;13.398;2022-11-15T01:54:19;68.13;;;36.65;;
26951;SDS011;14507;52.418;13.398;2022-11-15T01:56:47;69.35;;;38.85;;
26951;SDS011;14507;52.418;13.398;2022-11-15T01:59:21;65.10;;;36.83;;
26951;SDS011;14507;52.418;13.398;2022-11-15T02:01:47;69.53;;;36.30;;
26951;SDS011;14507;52.418;13.398;2022-11-15T02:04:15;68.68;;;37.30;;
26951;SDS011;14507;52.418;13.398;2022-11-15T02:06:44;70.13;;;37.83;;
26951;SDS011;14507;52.418;13.398;2022-11-15T02:09:11;70.95;;;39.92;;
26951;SDS011;14507;52.418;13.398;2022-11-15T02:11:38;69.93;;;38.05;;
26951;SDS011;14507;52.418;13.398;2022-11-15T02:14:03;68.50;;;37.60;;
26951;SDS011;14507;52.418;13.398;2022-11-15T02:16:53;61.80;;;35.55;;
26951;SDS011;14507;52.418;13.398;2022-11-15T02:19:29;65.97;;;36.13;;
26951;SDS011;14507;52.418;13.398;2022-11-15T02:27:38;67.50;;;36.55;;
26951;SDS011;14507;52.418;13.398;2022-11-15T02:30:19;66.72;;;36.80;;
26951;SDS011;14507;52.418;13.398;2022-11-15T02:35:47;65.72;;;38.00;;
26951;SDS011;14507;52.418;13.398;2022-11-15T02:38:22;62.83;;;36.38;;
26951;SDS011;14507;52.418;13.398;2022-11-15T02:40:54;65.65;;;35.35;;
26951;SDS011;14507;52.418;13.398;2022-11-15T02:44:11;64.57;;;36.63;;
26951;SDS011;14507;52.418;13.398;2022-11-15T02:49:17;63.67;;;34.60;;
26951;SDS011;14507;52.418;13.398;2022-11-15T02:51:44;66.25;;;35.42;;
26951;SDS011;14507;52.418;13.398;2022-11-15T02:54:13;63.78;;;35.25;;
26951;SDS011;14507;52.418;13.398;2022-11-15T02:56:41;72.18;;;37.00;;
26951;SDS011;14507;52.418;13.398;2022-11-15T02:59:13;67.60;;;36.65;;
26951;SDS011;14507;52.418;13.398;2022-11-15T03:05:33;66.95;;;36.42;;
26951;SDS011;14507;52.418;13.398;2022-11-15T03:12:59;68.50;;;36.38;;
26951;SDS011;14507;52.418;13.398;2022-11-15T03:15:41;69.85;;;35.47;;
26951;SDS011;14507;52.418;13.398;2022-11-15T03:18:30;65.73;;;35.13;;
26951;SDS011;14507;52.418;13.398;2022-11-15T03:20:59;62.53;;;35.08;;
26951;SDS011;14507;52.418;13.398;2022-11-15T03:23:28;64.07;;;36.38;;
26951;SDS011;14507;52.418;13.398;2022-11-15T03:25:56;63.92;;;34.15;;
26951;SDS011;14507;52.418;13.398;2022-11-15T03:28:24;69.28;;;36.72;;
26951;SDS011;14507;52.418;13.398;2022-11-15T03:31:06;62.67;;;34.55;;
26951;SDS011;14507;52.418;13.398;2022-11-15T03:33:52;60.22;;;33.20;;
26951;SDS011;14507;52.418;13.398;2022-11-15T03:36:21;65.50;;;35.75;;
26951;SDS011;14507;52.418;13.398;2022-11-15T03:38:50;67.72;;;36.05;;
26951;SDS011;14507;52.418;13.398;2022-11-15T03:41:24;66.43;;;36.13;;
26951;SDS011;14507;52.418;13.398;2022-11-15T03:43:57;63.17;;;34.97;;
26951;SDS011;14507;52.418;13.398;2022-11-15T03:46:33;64.70;;;34.92;;
26951;SDS011;14507;52.418;13.398;2022-11-15T03:49:20;61.25;;;34.42;;
26951;SDS011;14507;52.418;13.398;2022-11-15T03:51:50;58.85;;;32.42;;
26951;SDS011;14507;52.418;13.398;2022-11-15T03:54:16;64.10;;;35.75;;
26951;SDS011;14507;52.418;13.398;2022-11-15T03:56:42;64.45;;;35.72;;
26951;SDS011;14507;52.418;13.398;2022-11-15T03:59:07;64.50;;;34.40;;
26951;SDS011;14507;52.418;13.398;2022-11-15T04:01:33;68.72;;;36.88;;
26951;SDS011;14507;52.418;13.398;2022-11-15T04:03:59;64.82;;;35.17;;
26951;SDS011;14507;52.418;13.398;2022-11-15T04:06:24;69.60;;;35.95;;
26951;SDS011;14507;52.418;13.398;2022-11-15T04:08:50;59.03;;;33.00;;
26951;SDS011;14507;52.418;13.398;2022-11-15T04:11:16;63.20;;;33.60;;
26951;SDS011;14507;52.418;13.398;2022-11-15T04:13:41;64.53;;;35.90;;
26951;SDS011;14507;52.418;13.398;2022-11-15T04:16:07;65.68;;;35.45;;
26951;SDS011;14507;52.418;13.398;2022-11-15T04:18:33;68.57;;;37.25;;
26951;SDS011;14507;52.418;13.398;2022-11-15T04:20:58;61.83;;;34.35;;
26951;SDS011;14507;52.418;13.398;2022-11-15T04:23:43;64.80;;;34.90;;
26951;SDS011;14507;52.418;13.398;2022-11-15T04:26:27;72.05;;;37.63;;
26951;SDS011;14507;52.418;13.398;2022-11-15T04:28:52;68.50;;;35.15;;
26951;SDS011;14507;52.418;13.398;2022-11-15T04:31:37;65.88;;;36.60;;
26951;SDS011;14507;52.418;13.398;2022-11-15T04:34:02;65.07;;;35.63;;
26951;SDS011;14507;52.418;13.398;2022-11-15T04:36:28;67.05;;;34.30;;
26951;SDS011;14507;52.418;13.398;2022-11-15T04:39:12;62.60;;;35.55;;
26951;SDS011;14507;52.418;13.398;2022-11-15T04:41:37;66.32;;;36.38;;
26951;SDS011;14507;52.418;13.398;2022-11-15T04:44:03;63.83;;;34.92;;
26951;SDS011;14507;52.418;13.398;2022-11-15T04:46:29;61.15;;;34.55;;
26951;SDS011;14507;52.418;13.398;2022-11-15T04:48:54;66.63;;;35.53;;
26951;SDS011;14507;52.418;13.398;2022-11-15T04:51:20;67.78;;;36.65;;
26951;SDS011;14507;52.418;13.398;2022-11-15T04:53:46;63.42;;;35.47;;
26951;SDS011;14507;52.418;13.398;2022-11-15T04:56:11;64.28;;;34.65;;
26951;SDS011;14507;52.418;13.398;2022-11-15T04:58:37;68.35;;;36.15;;
26951;SDS011;14507;52.418;13.398;2022-11-15T05:01:10;65.47;;;35.65;;
26951;SDS011;14507;52.418;13.398;2022-11-15T05:03:38;71.03;;;37.17;;
26951;SDS011;14507;52.418;13.398;2022-11-15T05:06:22;70.55;;;36.70;;
26951;SDS011;14507;52.418;13.398;2022-11-15T05:08:48;66.80;;;36.80;;
26951;SDS011;14507;52.418;13.398;2022-11-15T05:11:14;68.63;;;36.70;;
26951;SDS011;14507;52.418;13.398;2022-11-15T05:13:39;65.75;;;36.13;;
26951;SDS011;14507;52.418;13.398;2022-11-15T05:16:05;73.28;;;38.90;;
26951;SDS011;14507;52.418;13.398;2022-11-15T05:18:31;69.15;;;36.83;;
26951;SDS011;14507;52.418;13.398;2022-11-15T05:21:02;68.05;;;36.25;;
26951;SDS011;14507;52.418;13.398;2022-11-15T05:23:29;68.93;;;35.78;;
26951;SDS011;14507;52.418;13.398;2022-11-15T05:25:58;65.65;;;35.22;;
26951;SDS011;14507;52.418;13.398;2022-11-15T05:28:24;67.53;;;35.97;;
26951;SDS011;14507;52.418;13.398;2022-11-15T05:30:50;65.55;;;35.38;;
26951;SDS011;14507;52.418;13.398;2022-11-15T05:33:15;66.07;;;36.13;;
26951;SDS011;14507;52.418;13.398;2022-11-15T05:35:42;67.65;;;36.30;;
26951;SDS011;14507;52.418;13.398;2022-11-15T05:38:22;68.00;;;35.17;;
26951;SDS011;14507;52.418;13.398;2022-11-15T05:40:48;61.00;;;33.33;;
26951;SDS011;14507;52.418;13.398;2022-11-15T05:43:14;69.70;;;36.08;;
26951;SDS011;14507;52.418;13.398;2022-11-15T05:45:40;60.22;;;34.60;;
26951;SDS011;14507;52.418;13.398;2022-11-15T05:48:06;68.60;;;36.58;;
26951;SDS011;14507;52.418;13.398;2022-11-15T05:50:35;65.85;;;35.22;;
26951;SDS011;14507;52.418;13.398;2022-11-15T05:53:03;63.50;;;34.83;;
26951;SDS011;14507;52.418;13.398;2022-11-15T05:55:30;66.65;;;36.28;;
26951;SDS011;14507;52.418;13.398;2022-11-15T05:57:56;69.35;;;35.90;;
26951;SDS011;14507;52.418;13.398;2022-11-15T06:00:22;64.75;;;36.03;;
26951;SDS011;14507;52.418;13.398;2022-11-15T06:02:48;69.82;;;37.13;;
26951;SDS011;14507;52.418;13.398;2022-11-15T06:05:13;62.97;;;34.22;;
26951;SDS011;14507;52.418;13.398;2022-11-15T06:07:39;71.03;;;37.60;;
26951;SDS011;14507;52.418;13.398;2022-11-15T06:10:05;74.00;;;38.20;;
26951;SDS011;14507;52.418;13.398;2022-11-15T06:12:31;68.47;;;37.15;;
26951;SDS011;14507;52.418;13.398;2022-11-15T06:14:57;73.90;;;39.47;;
26951;SDS011;14507;52.418;13.398;2022-11-15T06:17:22;66.70;;;35.92;;
26951;SDS011;14507;52.418;13.398;2022-11-15T06:19:48;63.22;;;34.15;;
26951;SDS011;14507;52.418;13.398;2022-11-15T06:22:13;69.80;;;36.80;;
26951;SDS011;14507;52.418;13.398;2022-11-15T06:24:39;70.38;;;37.45;;
26951;SDS011;14507;52.418;13.398;2022-11-15T06:27:05;72.35;;;37.67;;
26951;SDS011;14507;52.418;13.398;2022-11-15T06:29:30;71.78;;;36.85;;
26951;SDS011;14507;52.418;13.398;2022-11-15T06:31:56;69.53;;;36.95;;
26951;SDS011;14507;52.418;13.398;2022-11-15T06:34:22;70.43;;;37.60;;
26951;SDS011;14507;52.418;13.398;2022-11-15T06:36:47;74.88;;;38.45;;
26951;SDS011;14507;52.418;13.398;2022-11-15T06:39:13;69.55;;;35.97;;
26951;SDS011;14507;52.418;13.398;2022-11-15T06:41:39;67.47;;;36.38;;
26951;SDS011;14507;52.418;13.398;2022-11-15T06:44:04;66.30;;;35.50;;
26951;SDS011;14507;52.418;13.398;2022-11-15T06:46:30;70.95;;;37.95;;
26951;SDS011;14507;52.418;13.398;2022-11-15T06:48:55;67.25;;;36.45;;
26951;SDS011;14507;52.418;13.398;2022-11-15T06:51:21;70.15;;;36.88;;
26951;SDS011;14507;52.418;13.398;2022-11-15T06:53:47;70.07;;;36.60;;
26951;SDS011;14507;52.418;13.398;2022-11-15T06:56:12;72.15;;;38.55;;
26951;SDS011;14507;52.418;13.398;2022-11-15T06:58:38;64.25;;;35.28;;
26951;SDS011;14507;52.418;13.398;2022-11-15T07:01:05;69.10;;;37.58;;
26951;SDS011;14507;52.418;13.398;2022-11-15T07:03:39;67.10;;;35.40;;
26951;SDS011;14507;52.418;13.398;2022-11-15T07:06:06;69.60;;;39.33;;
26951;SDS011;14507;52.418;13.398;2022-11-15T07:08:33;72.13;;;36.95;;
26951;SDS011;14507;52.418;13.398;2022-11-15T07:11:00;66.93;;;36.50;;
26951;SDS011;14507;52.418;13.398;2022-11-15T07:13:28;67.35;;;36.58;;
26951;SDS011;14507;52.418;13.398;2022-11-15T07:15:55;67.38;;;37.17;;
26951;SDS011;14507;52.418;13.398;2022-11-15T07:18:20;74.13;;;37.53;;
26951;SDS011;14507;52.418;13.398;2022-11-15T07:20:46;67.32;;;36.38;;
26951;SDS011;14507;52.418;13.398;2022-11-15T07:23:12;69.13;;;37.83;;
26951;SDS011;14507;52.418;13.398;2022-11-15T07:25:38;69.97;;;36.92;;
26951;SDS011;14507;52.418;13.398;2022-11-15T07:28:03;69.93;;;37.15;;
26951;SDS011;14507;52.418;13.398;2022-11-15T07:30:29;68.28;;;37.28;;
26951;SDS011;14507;52.418;13.398;2022-11-15T07:32:55;72.82;;;36.38;;
26951;SDS011;14507;52.418;13.398;2022-11-15T07:35:23;69.40;;;37.43;;
26951;SDS011;14507;52.418;13.398;2022-11-15T07:38:08;73.82;;;36.53;;
26951;SDS011;14507;52.418;13.398;2022-11-15T07:40:33;71.50;;;37.15;;
26951;SDS011;14507;52.418;13.398;2022-11-15T07:43:03;70.18;;;37.30;;
26951;SDS011;14507;52.418;13.398;2022-11-15T07:45:31;70.55;;;38.00;;
26951;SDS011;14507;52.418;13.398;2022-11-15T07:47:58;67.93;;;37.93;;
26951;SDS011;14507;52.418;13.398;2022-11-15T07:50:24;67.95;;;36.95;;
26951;SDS011;14507;52.418;13.398;2022-11-15T07:52:57;68.43;;;35.75;;
26951;SDS011;14507;52.418;13.398;2022-11-15T07:55:24;72.72;;;37.47;;
26951;SDS011;14507;52.418;13.398;2022-11-15T07:57:52;69.57;;;38.22;;
26951;SDS011;14507;52.418;13.398;2022-11-15T08:00:18;69.68;;;37.72;;
26951;SDS011;14507;52.418;13.398;2022-11-15T08:02:44;70.38;;;38.10;;
26951;SDS011;14507;52.418;13.398;2022-11-15T08:05:10;74.82;;;39.13;;
26951;SDS011;14507;52.418;13.398;2022-11-15T08:07:36;70.28;;;37.75;;
26951;SDS011;14507;52.418;13.398;2022-11-15T08:10:03;64.75;;;36.25;;
26951;SDS011;14507;52.418;13.398;2022-11-15T08:12:30;70.00;;;37.72;;
26951;SDS011;14507;52.418;13.398;2022-11-15T08:14:56;71.03;;;38.03;;
26951;SDS011;14507;52.418;13.398;2022-11-15T08:17:25;67.55;;;38.08;;
26951;SDS011;14507;52.418;13.398;2022-11-15T08:19:51;73.63;;;40.28;;
26951;SDS011;14507;52.418;13.398;2022-11-15T08:22:17;75.43;;;40.38;;
26951;SDS011;14507;52.418;13.398;2022-11-15T08:24:43;72.45;;;38.67;;
26951;SDS011;14507;52.418;13.398;2022-11-15T08:27:09;59.30;;;34.17;;
26951;SDS011;14507;52.418;13.398;2022-11-15T08:29:40;53.55;;;30.58;;
26951;SDS011;14507;52.418;13.398;2022-11-15T08:32:06;48.23;;;29.90;;
26951;SDS011;14507;52.418;13.398;2022-11-15T08:34:32;49.15;;;28.58;;
26951;SDS011;14507;52.418;13.398;2022-11-15T08:36:58;47.22;;;27.40;;
26951;SDS011;14507;52.418;13.398;2022-11-15T08:39:24;44.67;;;27.63;;
26951;SDS011;14507;52.418;13.398;2022-11-15T08:41:49;42.42;;;26.30;;
26951;SDS011;14507;52.418;13.398;2022-11-15T08:44:15;43.42;;;25.75;;
26951;SDS011;14507;52.418;13.398;2022-11-15T08:46:40;45.65;;;26.48;;
26951;SDS011;14507;52.418;13.398;2022-11-15T08:49:06;45.45;;;26.25;;
26951;SDS011;14507;52.418;13.398;2022-11-15T08:51:32;43.55;;;26.10;;
26951;SDS011;14507;52.418;13.398;2022-11-15T08:53:57;48.25;;;26.83;;
26951;SDS011;14507;52.418;13.398;2022-11-15T08:56:23;50.63;;;28.30;;
26951;SDS011;14507;52.418;13.398;2022-11-15T08:58:49;50.58;;;29.58;;
26951;SDS011;14507;52.418;13.398;2022-11-15T09:01:18;48.45;;;28.52;;
26951;SDS011;14507;52.418;13.398;2022-11-15T09:03:45;48.72;;;29.23;;
26951;SDS011;14507;52.418;13.398;2022-11-15T09:06:11;50.90;;;28.85;;
26951;SDS011;14507;52.418;13.398;2022-11-15T09:08:36;51.78;;;29.02;;
26951;SDS011;14507;52.418;13.398;2022-11-15T09:11:06;54.60;;;29.35;;
26951;SDS011;14507;52.418;13.398;2022-11-15T09:13:33;50.67;;;30.20;;
26951;SDS011;14507;52.418;13.398;2022-11-15T09:16:00;50.60;;;30.10;;
26951;SDS011;14507;52.418;13.398;2022-11-15T09:18:26;52.40;;;29.17;;
26951;SDS011;14507;52.418;13.398;2022-11-15T09:20:56;56.80;;;30.70;;
26951;SDS011;14507;52.418;13.398;2022-11-15T09:23:24;51.50;;;29.30;;
26951;SDS011;14507;52.418;13.398;2022-11-15T09:25:51;52.13;;;29.42;;
26951;SDS011;14507;52.418;13.398;2022-11-15T09:28:18;51.53;;;30.30;;
26951;SDS011;14507;52.418;13.398;2022-11-15T09:30:43;52.42;;;29.45;;
26951;SDS011;14507;52.418;13.398;2022-11-15T09:33:10;47.60;;;27.95;;
26951;SDS011;14507;52.418;13.398;2022-11-15T09:35:36;53.17;;;29.07;;
26951;SDS011;14507;52.418;13.398;2022-11-15T09:38:03;49.80;;;26.25;;
26951;SDS011;14507;52.418;13.398;2022-11-15T09:40:30;43.90;;;25.75;;
26951;SDS011;14507;52.418;13.398;2022-11-15T09:43:03;43.03;;;25.80;;
26951;SDS011;14507;52.418;13.398;2022-11-15T09:51:28;42.42;;;23.83;;
26951;SDS011;14507;52.418;13.398;2022-11-15T10:05:07;39.85;;;21.80;;
26951;SDS011;14507;52.418;13.398;2022-11-15T10:07:40;36.83;;;21.30;;
26951;SDS011;14507;52.418;13.398;2022-11-15T10:13:20;38.17;;;21.05;;
26951;SDS011;14507;52.418;13.398;2022-11-15T10:15:49;39.35;;;22.23;;
26951;SDS011;14507;52.418;13.398;2022-11-15T10:18:27;35.55;;;20.60;;
26951;SDS011;14507;52.418;13.398;2022-11-15T10:21:06;37.35;;;19.83;;
26951;SDS011;14507;52.418;13.398;2022-11-15T10:23:41;32.53;;;20.60;;
26951;SDS011;14507;52.418;13.398;2022-11-15T10:26:08;36.08;;;19.77;;
26951;SDS011;14507;52.418;13.398;2022-11-15T10:28:41;31.30;;;19.30;;
26951;SDS011;14507;52.418;13.398;2022-11-15T10:31:23;31.50;;;19.95;;
26951;SDS011;14507;52.418;13.398;2022-11-15T10:33:50;32.47;;;19.17;;
26951;SDS011;14507;52.418;13.398;2022-11-15T10:36:22;31.33;;;18.98;;
26951;SDS011;14507;52.418;13.398;2022-11-15T10:38:52;35.08;;;20.02;;
26951;SDS011;14507;52.418;13.398;2022-11-15T10:41:21;35.10;;;19.75;;
26951;SDS011;14507;52.418;13.398;2022-11-15T10:44:02;31.80;;;18.55;;
26951;SDS011;14507;52.418;13.398;2022-11-15T10:46:44;35.45;;;19.58;;
26951;SDS011;14507;52.418;13.398;2022-11-15T10:49:17;28.70;;;18.30;;
26951;SDS011;14507;52.418;13.398;2022-11-15T10:51:46;32.25;;;18.25;;
26951;SDS011;14507;52.418;13.398;2022-11-15T10:57:12;31.55;;;17.98;;
26951;SDS011;14507;52.418;13.398;2022-11-15T10:59:42;30.52;;;17.48;;
26951;SDS011;14507;52.418;13.398;2022-11-15T11:04:57;29.42;;;17.73;;
26951;SDS011;14507;52.418;13.398;2022-11-15T11:07:27;31.48;;;16.83;;
26951;SDS011;14507;52.418;13.398;2022-11-15T11:12:29;26.58;;;16.42;;
26951;SDS011;14507;52.418;13.398;2022-11-15T11:14:59;27.38;;;15.43;;
26951;SDS011;14507;52.418;13.398;2022-11-15T11:20:04;29.58;;;17.15;;
26951;SDS011;14507;52.418;13.398;2022-11-15T11:22:53;25.37;;;15.27;;
26951;SDS011;14507;52.418;13.398;2022-11-15T11:28:08;28.33;;;16.13;;
26951;SDS011;14507;52.418;13.398;2022-11-15T11:33:03;26.10;;;15.88;;
26951;SDS011;14507;52.418;13.398;2022-11-15T11:40:45;27.35;;;14.45;;
26951;SDS011;14507;52.418;13.398;2022-11-15T11:43:37;25.75;;;15.25;;
26951;SDS011;14507;52.418;13.398;2022-11-15T11:46:24;25.95;;;15.40;;
26951;SDS011;14507;52.418;13.398;2022-11-15T11:49:39;25.02;;;14.90;;
26951;SDS011;14507;52.418;13.398;2022-11-15T11:52:28;25.92;;;15.65;;
26951;SDS011;14507;52.418;13.398;2022-11-15T12:00:28;26.23;;;15.15;;
26951;SDS011;14507;52.418;13.398;2022-11-15T12:17:11;22.77;;;13.18;;
26951;SDS011;14507;52.418;13.398;2022-11-15T12:19:37;22.80;;;12.48;;
26951;SDS011;14507;52.418;13.398;2022-11-15T12:24:50;22.13;;;13.75;;
26951;SDS011;14507;52.418;13.398;2022-11-15T12:27:29;21.67;;;12.98;;
26951;SDS011;14507;52.418;13.398;2022-11-15T12:30:09;26.15;;;13.00;;
26951;SDS011;14507;52.418;13.398;2022-11-15T12:32:48;24.20;;;12.77;;
26951;SDS011;14507;52.418;13.398;2022-11-15T12:35:56;26.52;;;13.52;;
26951;SDS011;14507;52.418;13.398;2022-11-15T12:38:11;21.45;;;12.10;;
26951;SDS011;14507;52.418;13.398;2022-11-15T12:40:38;20.52;;;11.80;;
26951;SDS011;14507;52.418;13.398;2022-11-15T12:43:41;21.52;;;12.75;;
26951;SDS011;14507;52.418;13.398;2022-11-15T12:46:10;22.60;;;12.20;;
26951;SDS011;14507;52.418;13.398;2022-11-15T12:48:48;23.67;;;12.45;;
26951;SDS011;14507;52.418;13.398;2022-11-15T12:51:17;21.30;;;13.05;;
26951;SDS011;14507;52.418;13.398;2022-11-15T12:53:46;21.92;;;13.15;;
26951;SDS011;14507;52.418;13.398;2022-11-15T12:58:56;20.05;;;12.48;;
26951;SDS011;14507;52.418;13.398;2022-11-15T13:08:34;20.65;;;12.65;;
26951;SDS011;14507;52.418;13.398;2022-11-15T13:11:41;21.67;;;12.10;;
26951;SDS011;14507;52.418;13.398;2022-11-15T13:14:34;22.48;;;13.45;;
26951;SDS011;14507;52.418;13.398;2022-11-15T13:17:28;24.25;;;14.43;;
26951;SDS011;14507;52.418;13.398;2022-11-15T13:30:48;26.33;;;15.80;;
26951;SDS011;14507;52.418;13.398;2022-11-15T13:33:16;29.50;;;15.63;;
26951;SDS011;14507;52.418;13.398;2022-11-15T13:35:54;28.17;;;16.80;;
26951;SDS011;14507;52.418;13.398;2022-11-15T13:40:52;33.72;;;17.75;;
26951;SDS011;14507;52.418;13.398;2022-11-15T13:46:06;30.90;;;16.15;;
26951;SDS011;14507;52.418;13.398;2022-11-15T13:48:43;26.15;;;14.80;;
26951;SDS011;14507;52.418;13.398;2022-11-15T13:56:37;28.17;;;15.18;;
26951;SDS011;14507;52.418;13.398;2022-11-15T13:59:25;27.02;;;14.70;;
26951;SDS011;14507;52.418;13.398;2022-11-15T14:01:56;30.10;;;15.63;;
26951;SDS011;14507;52.418;13.398;2022-11-15T14:04:26;34.90;;;16.13;;
26951;SDS011;14507;52.418;13.398;2022-11-15T14:06:57;27.08;;;15.02;;
26951;SDS011;14507;52.418;13.398;2022-11-15T14:11:58;25.13;;;14.68;;
26951;SDS011;14507;52.418;13.398;2022-11-15T14:14:26;29.52;;;15.70;;
26951;SDS011;14507;52.418;13.398;2022-11-15T14:16:53;22.03;;;13.77;;
26951;SDS011;14507;52.418;13.398;2022-11-15T14:24:38;27.20;;;15.75;;
26951;SDS011;14507;52.418;13.398;2022-11-15T14:27:24;28.10;;;15.77;;
26951;SDS011;14507;52.418;13.398;2022-11-15T14:29:52;28.00;;;15.82;;
26951;SDS011;14507;52.418;13.398;2022-11-15T14:32:19;30.80;;;16.05;;
26951;SDS011;14507;52.418;13.398;2022-11-15T14:34:57;26.65;;;16.30;;
26951;SDS011;14507;52.418;13.398;2022-11-15T14:37:25;27.13;;;15.73;;
26951;SDS011;14507;52.418;13.398;2022-11-15T14:39:59;27.98;;;16.00;;
26951;SDS011;14507;52.418;13.398;2022-11-15T14:42:27;28.42;;;15.80;;
26951;SDS011;14507;52.418;13.398;2022-11-15T14:44:53;27.15;;;15.82;;
26951;SDS011;14507;52.418;13.398;2022-11-15T14:47:18;22.85;;;14.10;;
26951;SDS011;14507;52.418;13.398;2022-11-15T14:49:44;27.92;;;14.88;;
26951;SDS011;14507;52.418;13.398;2022-11-15T14:54:48;25.77;;;14.43;;
26951;SDS011;14507;52.418;13.398;2022-11-15T14:57:13;26.35;;;14.90;;
26951;SDS011;14507;52.418;13.398;2022-11-15T14:59:39;25.95;;;14.38;;
26951;SDS011;14507;52.418;13.398;2022-11-15T15:02:38;27.58;;;15.40;;
26951;SDS011;14507;52.418;13.398;2022-11-15T15:04:57;23.70;;;14.80;;
26951;SDS011;14507;52.418;13.398;2022-11-15T15:07:25;24.48;;;14.07;;
26951;SDS011;14507;52.418;13.398;2022-11-15T15:09:51;22.92;;;14.05;;
26951;SDS011;14507;52.418;13.398;2022-11-15T15:12:18;32.65;;;15.75;;
26951;SDS011;14507;52.418;13.398;2022-11-15T15:14:46;23.42;;;13.93;;
26951;SDS011;14507;52.418;13.398;2022-11-15T15:17:13;26.92;;;14.93;;
26951;SDS011;14507;52.418;13.398;2022-11-15T15:19:39;23.88;;;13.85;;
26951;SDS011;14507;52.418;13.398;2022-11-15T15:22:05;26.90;;;15.55;;
26951;SDS011;14507;52.418;13.398;2022-11-15T15:24:31;25.40;;;14.73;;
26951;SDS011;14507;52.418;13.398;2022-11-15T15:26:57;21.88;;;14.35;;
26951;SDS011;14507;52.418;13.398;2022-11-15T15:29:23;26.30;;;16.23;;
26951;SDS011;14507;52.418;13.398;2022-11-15T15:31:48;32.97;;;16.55;;
26951;SDS011;14507;52.418;13.398;2022-11-15T15:34:14;31.33;;;16.67;;
26951;SDS011;14507;52.418;13.398;2022-11-15T15:36:39;30.13;;;17.67;;
26951;SDS011;14507;52.418;13.398;2022-11-15T15:39:07;25.33;;;16.02;;
26951;SDS011;14507;52.418;13.398;2022-11-15T15:41:35;28.00;;;15.98;;
26951;SDS011;14507;52.418;13.398;2022-11-15T15:44:00;24.42;;;15.82;;
26951;SDS011;14507;52.418;13.398;2022-11-15T15:46:26;27.35;;;16.25;;
26951;SDS011;14507;52.418;13.398;2022-11-15T15:48:52;27.65;;;16.85;;
26951;SDS011;14507;52.418;13.398;2022-11-15T15:51:17;27.10;;;16.08;;
26951;SDS011;14507;52.418;13.398;2022-11-15T15:53:43;36.33;;;18.95;;
26951;SDS011;14507;52.418;13.398;2022-11-15T15:56:09;41.45;;;21.70;;
26951;SDS011;14507;52.418;13.398;2022-11-15T15:58:34;41.45;;;22.63;;
26951;SDS011;14507;52.418;13.398;2022-11-15T16:01:00;42.88;;;24.67;;
26951;SDS011;14507;52.418;13.398;2022-11-15T16:03:26;38.00;;;21.55;;
26951;SDS011;14507;52.418;13.398;2022-11-15T16:05:52;33.20;;;19.90;;
26951;SDS011;14507;52.418;13.398;2022-11-15T16:08:22;37.80;;;21.13;;
26951;SDS011;14507;52.418;13.398;2022-11-15T16:10:49;37.83;;;21.15;;
26951;SDS011;14507;52.418;13.398;2022-11-15T16:13:15;26.60;;;16.15;;
26951;SDS011;14507;52.418;13.398;2022-11-15T16:15:41;36.00;;;19.20;;
26951;SDS011;14507;52.418;13.398;2022-11-15T16:18:17;29.65;;;17.80;;
26951;SDS011;14507;52.418;13.398;2022-11-15T16:20:47;34.08;;;17.98;;
26951;SDS011;14507;52.418;13.398;2022-11-15T16:23:15;31.02;;;18.38;;
26951;SDS011;14507;52.418;13.398;2022-11-15T16:25:49;33.28;;;17.17;;
26951;SDS011;14507;52.418;13.398;2022-11-15T16:28:27;27.85;;;18.23;;
26951;SDS011;14507;52.418;13.398;2022-11-15T16:31:01;28.85;;;17.15;;
26951;SDS011;14507;52.418;13.398;2022-11-15T16:33:29;27.35;;;16.63;;